富士山静岡空港METAR/TAF(約33km東):

RJNS 220300Z 08004KT 360V120 9999 FEW020 BKN030 13/04 Q1027

TAF RJNS 211705Z 2118/2300 36005KT 9999 FEW020 BKN035 BECMG 2123/2201 12005KT BECMG 2209/2212 26010KT

ソアリング用気象予報:
BLIPMAP 中部地方
中部日本航空連盟および大野グライダークラブの支援により運営されているソアリング用気象予報BLIPMAPの中部地方版です。

風向風力(Windy.com):
スマホでの閲覧には、アプリ版Windy(Android/iOS)が適切です。

EGC Icon